Esler Regional Airport
KESF : rendu visible

Aérodrome :











RETROUVEZ-NOUS SUR...

 
LOGIN :

S'inscrire | Disclaimer

   EN    FR    IT 

 









Légende :    VFR   VFR Marginal   IFR   IFR Intensif   IFR Très Intensif
Visi : 
Plafond : 
>= 8 km
>= 3000ft
5 à 8 km
1000 à 3000 ft
1500m à 5 km
500 à 1000 ft
800 à 1500m
200 à 500 ft
< 800m
< 200 ft
Symboles :   Orages  Brouillard  Fortes neiges  Fortes précipitations  Vent > 20 kt






- Altitude de l'aérodrome : 112 ft


KESF - Esler Regional

DERNIER METAR :
  • 061653Z AUTO 28007KT 10SM BKN008 BKN065 26/23 A2997 RMK AO2 LTG DSNT E-S RAE12 SLP147 P0000 T02560233

METARs EXPIRÉS :
  • 061640Z AUTO 26008KT 10SM BKN009 BKN065 26/23 A2997 RMK AO2 LTG DSNT SE AND SW RAE12 P0000 T02560233
  • 061627Z AUTO 26008KT 10SM SCT009 SCT036 BKN070 26/23 A2997 RMK AO2 LTG DSNT SE AND S RAE12 P0000 T02560233
  • 061553Z AUTO 28005KT 9SM -RA BKN060 OVC080 25/23 A2996 RMK AO2 LTG DSNT S AND SW SLP144 P0007 T02500233
  • 061515Z AUTO 28005KT 3SM RA BR FEW007 BKN080 OVC095 24/23 A2994 RMK AO2 LTG DSNT SW P0005 T02440233
  • 061506Z AUTO 26005KT 2SM RA BR FEW007 BKN070 OVC090 24/23 A2994 RMK AO2 LTG DSNT SW AND W P0004 T02440228
  • 061501Z AUTO 28007KT 1 3/4SM +RA BR FEW007 BKN027 OVC080 24/23 A2994 RMK AO2 LTG DSNT SW AND W P0003 T02440233
  • 061445Z AUTO 27008KT 3SM RA BR FEW009 BKN036 OVC055 25/24 A2995 RMK AO2 LTG DSNT SW AND W RAE25B27 P0026 T02500239
  • 061425Z AUTO 29004KT 7SM SCT036 BKN045 OVC075 24/24 A2994 RMK AO2 LTG DSNT W RAE25 P0024 T02440239
  • 061418Z AUTO 29006KT 2 1/2SM -RA BR FEW030 BKN039 OVC075 24/23 A2994 RMK AO2 LTG DSNT W P0024 T02440233
  • 061402Z AUTO 30004KT 3/4SM +RA BR FEW016 BKN041 OVC055 25/23 A2993 RMK AO2 LTG DSNT W P0011 T02500233

TAF N/A
FIR KZHU / Amérique du Nord



MET'MAP, la Météo Aéronautique d'un coup d'oeil ! - Copyright ORBIFLY Décembre 2007 - Disclaimer

ORBIFLY MET'MAP TEAM :

Programmation & Développement : Alexandra Zaïnal
Sur une idée originale de : Baudouin d'Aumeries
Assistance à la programmation : Marc-Olivier Méhu
Soutien technique & logistique : Manuel Goepfert

Contact : metmap@orbifly.com




SOURCES & CREDITS :

   NOAA       Earth
Advisory